Ruby Indah — 9VND — position and weather

sailwx.info

Track history (hours):
 
Tides and Currents Weather Stations Pressure Air Temp Water Temp Dewpoint Dewpoint Depression Visibility Wind Speed Wind Dir Waves Ship Positions

Ruby Indah

Last reported at 2016-Dec-01 07:13 UTC. Time now 2016-Dec-06 08:17 UTC.
Position N 37°54' E 121°51'.

Length 229 m; draft 7.4 m.

Type: Cargo ship. MMSI: 564748000.

Date/timePositionNaut miles runAvg speedWind from/ knotsBaromVisibWave heightAir tempDewpointWater temp
2016-Dec-01 07:13N 37°54' E 121°51'812.2
2016-Dec-01 06:32N 37°55' E 121°40'1212.1
2016-Dec-01 05:32N 37°54' E 121°25'5611.2
2016-Dec-01 00:32N 37°53' E 120°14'1010.5
2016-Nov-30 23:33N 37°43' E 120°11'3 2.5
2016-Nov-30 22:24N 37°41' E 120°13'0 0.0
2016-Nov-30 21:30N 37°41' E 120°13'0 0.0
2016-Nov-30 20:30N 37°41' E 120°13'0 0.0
2016-Nov-30 19:24N 37°41' E 120°13'0 0.1
2016-Nov-30 18:30N 37°41' E 120°13'0 0.0
2016-Nov-30 17:30N 37°41' E 120°13'0 0.0
2016-Nov-30 14:18N 37°41' E 120°13'0 0.0
2016-Nov-30 09:12N 37°41' E 120°13'0 0.0
2016-Nov-29 14:30N 37°41' E 120°13'0 0.0
2016-Nov-29 09:12N 37°41' E 120°13'9 0.6
2016-Nov-28 17:27N 37°48' E 120°05'0 0.0
2016-Nov-28 16:27N 37°48' E 120°05'0 0.0
2016-Nov-28 13:33N 37°47' E 120°05'0 0.0
2016-Nov-28 11:33N 37°47' E 120°06'0 0.0
2016-Nov-28 06:32N 37°48' E 120°06'0 0.0
2016-Nov-28 05:20N 37°48' E 120°06'0 0.1
2016-Nov-28 03:14N 37°47' E 120°05'0 0.0
2016-Nov-27 17:32N 37°47' E 120°05'0 0.0
2016-Nov-27 16:26N 37°47' E 120°05'0 0.0
2016-Nov-27 14:32N 37°47' E 120°05'0 0.0
2016-Nov-27 10:32N 37°47' E 120°06'0 0.0
2016-Nov-27 06:32N 37°47' E 120°06'0 0.0
2016-Nov-27 05:08N 37°47' E 120°06'0 0.1
2016-Nov-27 04:26N 37°47' E 120°06'0 0.0
2016-Nov-27 03:32N 37°47' E 120°06'56 2.7
2016-Nov-26 06:25N 37°56' E 121°16'910.1
2016-Nov-26 05:33N 37°55' E 121°27'1110.0
2016-Nov-26 04:29N 37°55' E 121°41'  
Track history (hours):
 
Tides and Currents Weather Stations Pressure Air Temp Water Temp Dewpoint Dewpoint Depression Visibility Wind Speed Wind Dir Waves Ship Positions

Ruby Indah

Last reported at 2016-Dec-01 07:13 UTC. Time now 2016-Dec-06 08:17 UTC.
Position N 37°54' E 121°51'.

Length 229 m; draft 7.4 m.

Type: Cargo ship. MMSI: 564748000.

Date/timePositionNaut miles runAvg speedWind from/ knotsBaromVisibWave heightAir tempDewpointWater temp
2016-Dec-01 07:13N 37°54' E 121°51'812.2
2016-Dec-01 06:32N 37°55' E 121°40'1212.1
2016-Dec-01 05:32N 37°54' E 121°25'5611.2
2016-Dec-01 00:32N 37°53' E 120°14'1010.5
2016-Nov-30 23:33N 37°43' E 120°11'3 2.5
2016-Nov-30 22:24N 37°41' E 120°13'0 0.0
2016-Nov-30 21:30N 37°41' E 120°13'0 0.0
2016-Nov-30 20:30N 37°41' E 120°13'0 0.0
2016-Nov-30 19:24N 37°41' E 120°13'0 0.1
2016-Nov-30 18:30N 37°41' E 120°13'0 0.0
2016-Nov-30 17:30N 37°41' E 120°13'0 0.0
2016-Nov-30 14:18N 37°41' E 120°13'0 0.0
2016-Nov-30 09:12N 37°41' E 120°13'0 0.0
2016-Nov-29 14:30N 37°41' E 120°13'0 0.0
2016-Nov-29 09:12N 37°41' E 120°13'9 0.6
2016-Nov-28 17:27N 37°48' E 120°05'0 0.0
2016-Nov-28 16:27N 37°48' E 120°05'0 0.0
2016-Nov-28 13:33N 37°47' E 120°05'0 0.0
2016-Nov-28 11:33N 37°47' E 120°06'0 0.0
2016-Nov-28 06:32N 37°48' E 120°06'0 0.0
2016-Nov-28 05:20N 37°48' E 120°06'0 0.1
2016-Nov-28 03:14N 37°47' E 120°05'0 0.0
2016-Nov-27 17:32N 37°47' E 120°05'0 0.0
2016-Nov-27 16:26N 37°47' E 120°05'0 0.0
2016-Nov-27 14:32N 37°47' E 120°05'0 0.0
2016-Nov-27 10:32N 37°47' E 120°06'0 0.0
2016-Nov-27 06:32N 37°47' E 120°06'0 0.0
2016-Nov-27 05:08N 37°47' E 120°06'0 0.1
2016-Nov-27 04:26N 37°47' E 120°06'0 0.0
2016-Nov-27 03:32N 37°47' E 120°06'56 2.7
2016-Nov-26 06:25N 37°56' E 121°16'910.1
2016-Nov-26 05:33N 37°55' E 121°27'1110.0
2016-Nov-26 04:29N 37°55' E 121°41'  

Dump ship's entire track history